createdAt,value
2022-09-06T00:02:54.836Z,16.31
2022-09-06T00:08:05.056Z,16.24
2022-09-06T00:13:11.717Z,16.24
2022-09-06T00:18:17.210Z,16.18
2022-09-06T00:23:22.776Z,16.08
2022-09-06T00:28:28.433Z,16.06
2022-09-06T00:33:34.220Z,15.98
2022-09-06T00:38:40.512Z,15.92
2022-09-06T00:43:46.359Z,15.86
2022-09-06T00:48:54.906Z,15.80
2022-09-06T00:54:02.310Z,15.78
2022-09-06T00:59:08.494Z,15.62
2022-09-06T01:04:14.869Z,15.61
2022-09-06T01:09:26.169Z,15.56
2022-09-06T01:15:00.507Z,15.55
2022-09-06T01:20:27.370Z,15.45
2022-09-06T01:25:38.670Z,15.38
2022-09-06T01:30:49.914Z,15.24
2022-09-06T01:36:01.385Z,15.29
2022-09-06T01:41:07.400Z,15.25
2022-09-06T01:46:34.145Z,15.21
2022-09-06T01:52:10.387Z,15.12
2022-09-06T01:57:41.556Z,15.00
2022-09-06T02:03:11.400Z,15.00
2022-09-06T02:08:20.022Z,14.92
2022-09-06T02:13:28.360Z,14.88
2022-09-06T02:18:45.908Z,14.79
2022-09-06T02:23:54.087Z,14.77
2022-09-06T02:28:59.703Z,14.67
2022-09-06T02:34:06.662Z,14.67
2022-09-06T02:39:13.343Z,14.69
2022-09-06T02:44:18.943Z,14.64
2022-09-06T02:49:24.611Z,14.64
2022-09-06T02:54:31.407Z,14.62
2022-09-06T02:59:36.972Z,14.56
2022-09-06T03:04:42.497Z,14.51
2022-09-06T03:09:48.095Z,14.49
2022-09-06T03:14:55.137Z,14.45
2022-09-06T03:20:00.968Z,14.39
2022-09-06T03:25:07.700Z,14.32
2022-09-06T03:30:13.899Z,14.15
2022-09-06T03:35:19.510Z,14.06
2022-09-06T03:40:24.987Z,14.00
2022-09-06T03:45:30.575Z,13.94
2022-09-06T03:50:36.245Z,13.93
2022-09-06T03:55:43.351Z,13.82
2022-09-06T04:00:49.161Z,13.79
2022-09-06T04:05:54.845Z,13.72
2022-09-06T04:11:01.022Z,13.71
2022-09-06T04:16:07.773Z,13.64
2022-09-06T04:21:13.381Z,13.61
2022-09-06T04:26:19.153Z,13.57
2022-09-06T04:31:24.733Z,13.49
2022-09-06T04:36:30.293Z,13.41
2022-09-06T04:41:35.862Z,13.43
2022-09-06T04:46:43.666Z,13.36
2022-09-06T04:51:49.252Z,13.24
2022-09-06T04:56:54.840Z,13.15
2022-09-06T05:02:00.589Z,13.12
2022-09-06T05:07:08.726Z,13.05
2022-09-06T05:12:15.986Z,13.08
2022-09-06T05:17:21.511Z,13.11
2022-09-06T05:22:27.019Z,13.12
2022-09-06T05:27:32.596Z,13.20
2022-09-06T05:32:38.142Z,13.27
2022-09-06T05:37:43.627Z,13.33
2022-09-06T05:42:49.204Z,13.37
2022-09-06T05:47:55.047Z,13.53
2022-09-06T05:53:00.832Z,13.57
2022-09-06T05:58:06.385Z,13.74
2022-09-06T06:03:11.918Z,13.83
2022-09-06T06:08:17.402Z,14.20
2022-09-06T06:13:22.969Z,14.53
2022-09-06T06:18:28.557Z,14.74
2022-09-06T06:23:34.323Z,15.08
2022-09-06T06:28:40.901Z,15.35
2022-09-06T06:33:46.588Z,15.38
2022-09-06T06:38:55.279Z,15.50
2022-09-06T06:44:03.024Z,15.63
2022-09-06T06:49:08.609Z,15.81
2022-09-06T06:54:14.385Z,15.96
2022-09-06T06:59:20.834Z,16.12
2022-09-06T07:04:26.403Z,16.26
2022-09-06T07:14:39.268Z,16.79
2022-09-06T07:24:52.149Z,17.16
2022-09-06T07:29:57.799Z,17.29
2022-09-06T07:35:03.475Z,17.50
2022-09-06T07:40:10.352Z,17.61
2022-09-06T07:45:16.378Z,17.72
2022-09-06T07:55:29.735Z,18.16
2022-09-06T08:00:35.302Z,18.37
2022-09-06T08:10:52.823Z,18.59
2022-09-06T08:16:03.204Z,18.55
2022-09-06T08:21:13.935Z,18.72
2022-09-06T08:26:24.211Z,19.03
2022-09-06T08:31:31.746Z,19.38
2022-09-06T08:36:37.834Z,19.67
2022-09-06T08:41:52.267Z,19.68
2022-09-06T08:47:01.586Z,19.77
2022-09-06T08:52:25.516Z,19.91
2022-09-06T08:57:40.502Z,20.04
2022-09-06T09:02:49.273Z,20.24
2022-09-06T09:08:19.076Z,20.32
2022-09-06T09:13:30.271Z,20.49
2022-09-06T09:18:39.197Z,20.48
2022-09-06T09:23:47.482Z,20.62
2022-09-06T09:29:11.240Z,20.87
2022-09-06T09:34:33.457Z,21.00
2022-09-06T09:39:41.182Z,21.08
2022-09-06T09:44:47.285Z,21.03
2022-09-06T09:49:52.885Z,21.11
2022-09-06T09:55:05.269Z,21.21
2022-09-06T10:00:15.139Z,21.07
2022-09-06T10:05:22.437Z,21.41
2022-09-06T10:10:44.329Z,21.52
2022-09-06T10:15:52.168Z,21.70
2022-09-06T10:21:09.754Z,21.80
2022-09-06T10:26:18.270Z,21.91
2022-09-06T10:31:43.721Z,22.11
2022-09-06T10:36:55.066Z,22.19
2022-09-06T10:42:15.946Z,22.19
2022-09-06T10:47:23.242Z,22.20
2022-09-06T10:52:34.459Z,22.28
2022-09-06T11:13:26.005Z,22.97
2022-09-06T11:18:37.283Z,23.20
2022-09-06T11:23:45.848Z,23.23
2022-09-06T11:29:00.321Z,23.17
2022-09-06T11:34:11.536Z,23.05
2022-09-06T11:44:57.605Z,22.94
2022-09-06T11:50:21.168Z,22.92
2022-09-06T11:55:38.583Z,22.95
2022-09-06T12:00:44.749Z,23.18
2022-09-06T12:06:17.658Z,23.26
2022-09-06T12:11:30.085Z,23.24
2022-09-06T12:16:52.545Z,23.19
2022-09-06T12:21:58.109Z,23.22
2022-09-06T12:27:18.524Z,23.30
2022-09-06T12:32:27.085Z,23.36
2022-09-06T12:37:42.140Z,23.37
2022-09-06T12:42:50.708Z,23.44
2022-09-06T12:48:10.453Z,23.42
2022-09-06T12:53:25.562Z,23.39
2022-09-06T12:58:31.239Z,23.43
2022-09-06T13:04:10.089Z,23.34
2022-09-06T13:09:18.614Z,23.33
2022-09-06T13:14:29.908Z,23.14
2022-09-06T13:19:38.093Z,23.16
2022-09-06T13:24:47.810Z,23.30
2022-09-06T13:30:01.414Z,23.28
2022-09-06T13:35:07.534Z,23.20
2022-09-06T13:40:37.753Z,23.16
2022-09-06T13:45:41.615Z,23.18
2022-09-06T13:50:47.462Z,23.29
2022-09-06T13:55:53.125Z,23.94
2022-09-06T14:01:00.398Z,23.73
2022-09-06T14:06:06.325Z,23.78
2022-09-06T14:11:13.625Z,23.73
2022-09-06T14:16:19.254Z,23.94
2022-09-06T14:21:25.065Z,24.18
2022-09-06T14:26:31.049Z,24.17
2022-09-06T14:31:36.904Z,24.13
2022-09-06T14:36:42.869Z,24.16
2022-09-06T14:41:48.439Z,24.09
2022-09-06T14:46:54.736Z,24.20
2022-09-06T14:52:00.290Z,24.14
2022-09-06T14:57:06.686Z,24.12
2022-09-06T15:02:12.415Z,24.06
2022-09-06T15:07:18.611Z,24.01
2022-09-06T15:12:24.746Z,23.96
2022-09-06T15:17:30.272Z,23.98
2022-09-06T15:22:36.845Z,23.91
2022-09-06T15:27:42.408Z,23.86
2022-09-06T15:32:47.973Z,23.83
2022-09-06T15:37:53.649Z,23.79
2022-09-06T15:42:59.243Z,23.76
2022-09-06T15:48:05.078Z,23.87
2022-09-06T15:53:10.658Z,24.01
2022-09-06T15:58:16.455Z,23.99
2022-09-06T16:03:21.984Z,23.87
2022-09-06T16:08:27.556Z,23.81
2022-09-06T16:13:37.814Z,23.77
2022-09-06T16:18:47.175Z,23.77
2022-09-06T16:23:56.224Z,23.71
2022-09-06T16:29:04.767Z,23.55
2022-09-06T16:34:12.194Z,23.50
2022-09-06T16:39:17.883Z,23.36
2022-09-06T16:44:23.644Z,23.30
2022-09-06T16:49:29.749Z,23.20
2022-09-06T16:54:35.410Z,23.12
2022-09-06T16:59:40.909Z,23.00
2022-09-06T17:04:46.472Z,22.92
2022-09-06T17:09:52.194Z,22.79
2022-09-06T17:14:57.911Z,22.73
2022-09-06T17:20:05.210Z,22.57
2022-09-06T17:25:14.312Z,22.43
2022-09-06T17:30:21.067Z,23.15
2022-09-06T17:35:28.885Z,22.38
2022-09-06T17:40:38.456Z,22.03
2022-09-06T17:45:44.745Z,21.72
2022-09-06T17:50:50.388Z,21.48
2022-09-06T17:55:56.039Z,21.25
2022-09-06T18:01:06.552Z,21.04
2022-09-06T18:06:14.854Z,20.87
2022-09-06T18:11:26.108Z,20.69
2022-09-06T18:16:33.017Z,20.54
2022-09-06T18:21:41.171Z,20.40
2022-09-06T18:26:47.146Z,20.30
2022-09-06T18:31:54.357Z,20.20
2022-09-06T18:37:00.216Z,20.14
2022-09-06T18:42:07.525Z,20.08
2022-09-06T18:47:13.700Z,20.04
2022-09-06T18:52:21.056Z,19.96
2022-09-06T18:57:26.679Z,20.91
2022-09-06T19:02:32.702Z,20.23
2022-09-06T19:07:38.441Z,19.99
2022-09-06T19:12:43.997Z,19.81
2022-09-06T19:17:53.065Z,19.55
2022-09-06T19:22:58.598Z,19.27
2022-09-06T19:28:04.664Z,19.15
2022-09-06T19:33:10.231Z,18.92
2022-09-06T19:38:15.711Z,18.83
2022-09-06T19:43:21.677Z,18.75
2022-09-06T19:48:28.850Z,18.65
2022-09-06T19:53:35.661Z,18.54
2022-09-06T19:58:42.004Z,18.44
2022-09-06T20:03:48.126Z,18.32
2022-09-06T20:08:55.255Z,18.23
2022-09-06T20:14:01.740Z,18.12
2022-09-06T20:19:07.279Z,18.04
2022-09-06T20:24:13.056Z,17.97
2022-09-06T20:29:18.823Z,17.93
2022-09-06T20:34:24.388Z,18.79
2022-09-06T20:39:29.976Z,18.16
2022-09-06T20:44:35.569Z,17.96
2022-09-06T20:49:41.077Z,17.80
2022-09-06T20:54:46.643Z,17.63
2022-09-06T20:59:52.167Z,17.53
2022-09-06T21:04:57.666Z,17.42
2022-09-06T21:10:03.201Z,17.30
2022-09-06T21:15:08.869Z,17.10
2022-09-06T21:20:14.467Z,17.00
2022-09-06T21:25:20.036Z,16.91
2022-09-06T21:30:26.936Z,16.80
2022-09-06T21:35:33.986Z,16.72
2022-09-06T21:40:39.490Z,16.65
2022-09-06T21:45:45.043Z,16.61
2022-09-06T21:50:51.597Z,16.56
2022-09-06T21:56:04.815Z,16.50
2022-09-06T22:01:10.638Z,16.49
2022-09-06T22:06:25.807Z,16.47
2022-09-06T22:11:34.318Z,16.51
2022-09-06T22:16:41.337Z,16.53
2022-09-06T22:21:47.180Z,16.53
2022-09-06T22:26:53.053Z,16.52
2022-09-06T22:31:59.036Z,16.51
2022-09-06T22:37:04.874Z,16.50
2022-09-06T22:42:11.308Z,16.45
2022-09-06T22:47:17.133Z,16.42
2022-09-06T22:52:23.210Z,16.46
2022-09-06T22:57:28.993Z,16.42
2022-09-06T23:02:34.850Z,16.40
2022-09-06T23:07:42.257Z,16.42
2022-09-06T23:12:48.638Z,16.35
2022-09-06T23:17:54.492Z,16.34
2022-09-06T23:23:00.281Z,16.26
2022-09-06T23:28:06.358Z,16.27
2022-09-06T23:33:12.379Z,16.31
2022-09-06T23:38:18.719Z,16.20
2022-09-06T23:43:24.481Z,16.11
2022-09-06T23:48:30.404Z,16.15
2022-09-06T23:53:36.230Z,16.09
2022-09-06T23:58:42.388Z,16.04
